createdAt,value
2023-03-16T00:00:31.246Z,29.15
2023-03-16T00:01:07.448Z,28.90
2023-03-16T00:01:43.248Z,28.97
2023-03-16T00:02:19.225Z,29.02
2023-03-16T00:02:54.989Z,28.82
2023-03-16T00:03:31.022Z,28.74
2023-03-16T00:04:06.720Z,28.72
2023-03-16T00:04:42.375Z,28.57
2023-03-16T00:05:18.962Z,28.68
2023-03-16T00:05:54.466Z,28.54
2023-03-16T00:06:30.868Z,28.59
2023-03-16T00:07:06.874Z,28.58
2023-03-16T00:07:42.988Z,28.55
2023-03-16T00:08:19.097Z,28.41
2023-03-16T00:08:54.197Z,28.69
2023-03-16T00:09:30.214Z,28.74
2023-03-16T00:10:06.317Z,28.66
2023-03-16T00:10:42.370Z,28.77
2023-03-16T00:11:17.909Z,28.51
2023-03-16T00:11:54.137Z,28.78
2023-03-16T00:12:30.184Z,28.78
2023-03-16T00:13:05.906Z,28.86
2023-03-16T00:13:42.205Z,28.83
2023-03-16T00:14:18.021Z,28.76
2023-03-16T00:14:53.504Z,28.76
2023-03-16T00:15:29.129Z,28.80
2023-03-16T00:16:05.558Z,28.75
2023-03-16T00:16:41.542Z,28.93
2023-03-16T00:17:17.476Z,28.95
2023-03-16T00:17:53.384Z,28.90
2023-03-16T00:18:29.416Z,28.90
2023-03-16T00:19:05.285Z,28.87
2023-03-16T00:19:41.327Z,28.89
2023-03-16T00:20:16.679Z,28.96
2023-03-16T00:20:53.225Z,28.99
2023-03-16T00:21:29.134Z,28.66
2023-03-16T00:22:05.168Z,28.89
2023-03-16T00:22:41.333Z,28.95
2023-03-16T00:23:17.400Z,28.80
2023-03-16T00:23:53.670Z,28.93
2023-03-16T00:24:29.400Z,29.00
2023-03-16T00:25:04.705Z,28.90
2023-03-16T00:25:41.298Z,28.82
2023-03-16T00:26:17.032Z,28.91
2023-03-16T00:26:53.428Z,28.96
2023-03-16T00:27:29.102Z,28.96
2023-03-16T00:28:05.370Z,29.08
2023-03-16T00:28:42.218Z,28.96
2023-03-16T00:29:17.715Z,29.06
2023-03-16T00:29:53.195Z,28.89
2023-03-16T00:30:29.654Z,29.05
2023-03-16T00:31:05.891Z,28.73
2023-03-16T00:31:42.147Z,28.88
2023-03-16T00:32:18.292Z,28.93
2023-03-16T00:32:54.331Z,28.90
2023-03-16T00:33:29.917Z,28.97
2023-03-16T00:34:06.113Z,29.05
2023-03-16T00:34:42.052Z,28.98
2023-03-16T00:35:17.460Z,28.98
2023-03-16T00:35:53.788Z,29.06
2023-03-16T00:36:29.530Z,28.93
2023-03-16T00:37:05.430Z,28.96
2023-03-16T00:37:41.496Z,29.02
2023-03-16T00:38:17.561Z,28.98
2023-03-16T00:38:53.621Z,28.91
2023-03-16T00:39:30.116Z,29.12
2023-03-16T00:40:06.159Z,28.74
2023-03-16T00:40:41.905Z,28.93
2023-03-16T00:41:18.534Z,29.04
2023-03-16T00:41:54.506Z,28.85
2023-03-16T00:42:30.637Z,29.00
2023-03-16T00:43:06.754Z,28.92
2023-03-16T00:43:43.081Z,28.93
2023-03-16T00:44:20.016Z,28.70
2023-03-16T00:44:56.281Z,28.91
2023-03-16T00:45:32.870Z,28.92
2023-03-16T00:46:08.817Z,28.93
2023-03-16T00:46:44.257Z,28.89
2023-03-16T00:47:20.665Z,29.07
2023-03-16T00:47:56.645Z,29.05
2023-03-16T00:48:32.842Z,29.16
2023-03-16T00:49:09.047Z,28.76
2023-03-16T00:49:44.580Z,28.91
2023-03-16T00:50:20.879Z,29.05
2023-03-16T00:50:56.813Z,28.71
2023-03-16T00:51:31.844Z,29.02
2023-03-16T00:52:08.180Z,29.00
2023-03-16T00:52:43.526Z,29.02
2023-03-16T00:53:19.912Z,29.09
2023-03-16T00:53:56.170Z,29.04
2023-03-16T00:54:32.062Z,28.91
2023-03-16T00:55:07.552Z,28.93
2023-03-16T00:55:43.713Z,28.96
2023-03-16T00:56:19.241Z,28.94
2023-03-16T00:56:55.745Z,28.97
2023-03-16T00:57:31.429Z,28.97
2023-03-16T00:58:07.528Z,28.89
2023-03-16T00:58:43.575Z,28.94
2023-03-16T00:59:19.447Z,28.84
2023-03-16T00:59:55.272Z,28.94
2023-03-16T01:00:30.969Z,28.97
2023-03-16T01:01:06.967Z,28.96
2023-03-16T01:01:43.447Z,28.89
2023-03-16T01:02:19.394Z,29.09
2023-03-16T01:02:55.419Z,29.00
2023-03-16T01:03:31.352Z,28.86
2023-03-16T01:04:07.689Z,29.00
2023-03-16T01:04:43.754Z,28.90
2023-03-16T01:05:19.722Z,28.83
2023-03-16T01:05:55.379Z,29.01
2023-03-16T01:06:31.476Z,29.04
2023-03-16T01:07:07.130Z,28.97
2023-03-16T01:07:43.620Z,28.93
2023-03-16T01:08:19.609Z,28.84
2023-03-16T01:08:55.630Z,28.99
2023-03-16T01:09:31.881Z,28.90
2023-03-16T01:10:08.268Z,29.20
2023-03-16T01:10:43.900Z,29.14
2023-03-16T01:11:19.350Z,29.10
2023-03-16T01:11:55.614Z,28.99
2023-03-16T01:12:31.299Z,28.98
2023-03-16T01:13:07.726Z,28.96
2023-03-16T01:13:44.037Z,28.90
2023-03-16T01:14:20.349Z,28.94
2023-03-16T01:14:55.514Z,28.91
2023-03-16T01:15:31.173Z,28.74
2023-03-16T01:16:06.778Z,28.86
2023-03-16T01:16:43.096Z,29.07
2023-03-16T01:17:18.869Z,28.98
2023-03-16T01:17:54.790Z,28.78
2023-03-16T01:18:31.309Z,28.92
2023-03-16T01:19:07.546Z,29.00
2023-03-16T01:19:43.558Z,28.87
2023-03-16T01:20:19.157Z,28.78
2023-03-16T01:20:55.232Z,28.81
2023-03-16T01:21:31.005Z,28.91
2023-03-16T01:22:07.348Z,28.98
2023-03-16T01:22:43.238Z,28.74
2023-03-16T01:23:19.974Z,28.98
2023-03-16T01:23:56.219Z,29.02
2023-03-16T01:24:32.215Z,28.76
2023-03-16T01:25:07.638Z,28.88
2023-03-16T01:25:43.406Z,28.88
2023-03-16T01:26:19.569Z,28.90
2023-03-16T01:26:55.319Z,28.83
2023-03-16T01:27:31.276Z,28.91
2023-03-16T01:28:06.815Z,28.91
2023-03-16T01:28:43.013Z,28.78
2023-03-16T01:29:19.122Z,29.00
2023-03-16T01:29:55.039Z,28.90
2023-03-16T01:30:30.607Z,28.87
2023-03-16T01:31:06.030Z,28.86
2023-03-16T01:31:41.967Z,28.65
2023-03-16T01:32:17.524Z,29.02
2023-03-16T01:32:53.960Z,29.00
2023-03-16T01:33:30.338Z,28.84
2023-03-16T01:34:06.528Z,28.81
2023-03-16T01:34:42.425Z,28.87
2023-03-16T01:35:17.833Z,28.81
2023-03-16T01:35:53.409Z,28.67
2023-03-16T01:36:28.780Z,28.98
2023-03-16T01:37:04.782Z,28.85
2023-03-16T01:37:40.884Z,28.82
2023-03-16T01:38:16.487Z,28.88
2023-03-16T01:38:53.021Z,28.93
2023-03-16T01:39:29.168Z,29.01
2023-03-16T01:40:04.852Z,28.89
2023-03-16T01:40:40.438Z,29.06
2023-03-16T01:41:16.334Z,28.82
2023-03-16T01:41:52.383Z,28.96
2023-03-16T01:42:28.345Z,28.82
2023-03-16T01:43:04.681Z,29.05
2023-03-16T01:43:41.348Z,28.94
2023-03-16T01:44:16.910Z,28.93
2023-03-16T01:44:52.839Z,28.80
2023-03-16T01:45:28.872Z,29.02
2023-03-16T01:46:04.281Z,28.85
2023-03-16T01:46:39.723Z,28.82
2023-03-16T01:47:15.840Z,28.89
2023-03-16T01:47:51.634Z,28.93
2023-03-16T01:48:27.469Z,28.85
2023-03-16T01:49:03.537Z,29.06
2023-03-16T01:49:39.605Z,29.00
2023-03-16T01:50:15.765Z,28.82
2023-03-16T01:50:51.348Z,28.74
2023-03-16T01:51:26.933Z,28.96
2023-03-16T01:52:03.043Z,28.93
2023-03-16T01:52:38.622Z,28.85
2023-03-16T01:53:14.848Z,28.90
2023-03-16T01:53:51.161Z,28.60
2023-03-16T01:54:27.136Z,28.89
2023-03-16T01:55:03.438Z,28.76
2023-03-16T01:55:39.875Z,28.93
2023-03-16T01:56:15.688Z,28.84
2023-03-16T01:56:50.810Z,28.82
2023-03-16T01:57:26.700Z,28.78
2023-03-16T01:58:03.009Z,28.71
2023-03-16T01:58:38.715Z,28.84
2023-03-16T01:59:14.765Z,28.73
2023-03-16T01:59:50.901Z,28.67
2023-03-16T02:00:27.073Z,28.71
2023-03-16T02:01:02.974Z,28.72
2023-03-16T02:01:38.243Z,28.48
2023-03-16T02:02:13.847Z,28.75
2023-03-16T02:02:49.503Z,28.48
2023-03-16T02:03:25.331Z,28.39
2023-03-16T02:04:01.942Z,28.53
2023-03-16T02:04:37.834Z,28.34
2023-03-16T02:05:13.879Z,28.66
2023-03-16T02:05:49.506Z,28.61
2023-03-16T02:06:25.999Z,28.67
2023-03-16T02:07:01.455Z,28.56
2023-03-16T02:07:37.140Z,28.64
2023-03-16T02:08:13.070Z,28.66
2023-03-16T02:08:48.937Z,28.58
2023-03-16T02:09:24.965Z,28.51
2023-03-16T02:10:00.879Z,28.61
2023-03-16T02:10:37.007Z,28.43
2023-03-16T02:11:13.558Z,28.46
2023-03-16T02:11:49.503Z,28.44
2023-03-16T02:12:24.950Z,28.36
2023-03-16T02:13:00.473Z,28.46
2023-03-16T02:13:36.436Z,28.49
2023-03-16T02:14:12.299Z,28.25
2023-03-16T02:14:47.963Z,28.36
2023-03-16T02:15:24.365Z,28.43
2023-03-16T02:16:00.287Z,28.33
2023-03-16T02:16:36.055Z,28.43
2023-03-16T02:17:11.648Z,28.20
2023-03-16T02:17:47.748Z,28.34
2023-03-16T02:18:23.313Z,28.28
2023-03-16T02:18:59.270Z,28.13
2023-03-16T02:19:35.145Z,28.13
2023-03-16T02:20:11.090Z,28.27
2023-03-16T02:20:47.410Z,28.18
2023-03-16T02:21:23.436Z,28.21
2023-03-16T02:21:59.116Z,28.14
2023-03-16T02:22:35.344Z,28.07
2023-03-16T02:23:11.611Z,28.11
2023-03-16T02:23:47.406Z,28.25
2023-03-16T02:24:23.380Z,28.24
2023-03-16T02:24:59.303Z,28.26
2023-03-16T02:25:35.576Z,28.26
2023-03-16T02:26:11.371Z,28.18
2023-03-16T02:26:47.939Z,28.19
2023-03-16T02:27:23.827Z,28.11
2023-03-16T02:27:59.742Z,28.18
2023-03-16T02:28:35.453Z,28.19
2023-03-16T02:29:11.093Z,28.13
2023-03-16T02:29:46.661Z,28.31
2023-03-16T02:30:22.588Z,28.09
2023-03-16T02:30:58.654Z,27.89
2023-03-16T02:31:34.190Z,28.14
2023-03-16T02:32:10.069Z,28.31
2023-03-16T02:32:46.510Z,28.14
2023-03-16T02:33:22.419Z,28.36
2023-03-16T02:33:58.080Z,28.24
2023-03-16T02:34:33.091Z,28.23
2023-03-16T02:35:09.093Z,28.32
2023-03-16T02:35:45.017Z,28.18
2023-03-16T02:36:21.132Z,28.23
2023-03-16T02:36:57.053Z,28.07
2023-03-16T02:37:32.972Z,28.00
2023-03-16T02:38:08.986Z,28.31
2023-03-16T02:38:44.886Z,27.96
2023-03-16T02:39:20.770Z,28.20
2023-03-16T02:39:56.384Z,28.12
2023-03-16T02:40:32.087Z,28.26
2023-03-16T02:41:08.386Z,28.09
2023-03-16T02:41:44.670Z,28.04
2023-03-16T02:42:20.519Z,28.32
2023-03-16T02:42:56.306Z,28.30
2023-03-16T02:43:32.353Z,28.24
2023-03-16T02:44:08.175Z,28.04
2023-03-16T02:44:43.955Z,28.12
2023-03-16T02:45:19.780Z,28.10
2023-03-16T02:45:55.678Z,28.28
2023-03-16T02:46:31.954Z,28.10
2023-03-16T02:47:07.891Z,28.01
2023-03-16T02:47:44.127Z,28.01
2023-03-16T02:48:19.775Z,28.13
2023-03-16T02:48:55.766Z,28.17
2023-03-16T02:49:32.328Z,28.24
2023-03-16T02:50:08.165Z,28.28
2023-03-16T02:50:43.370Z,28.09
2023-03-16T02:51:19.860Z,28.27
2023-03-16T02:51:55.633Z,28.42
2023-03-16T02:52:31.333Z,28.34
2023-03-16T02:53:07.008Z,28.29
2023-03-16T02:53:43.418Z,28.17
2023-03-16T02:54:19.235Z,28.49
2023-03-16T02:54:56.073Z,28.13
2023-03-16T02:55:31.508Z,28.18
2023-03-16T02:56:06.717Z,28.32
2023-03-16T02:56:42.445Z,28.22
2023-03-16T02:57:18.640Z,28.14
2023-03-16T02:57:54.947Z,28.08
2023-03-16T02:58:30.451Z,28.28
2023-03-16T02:59:06.656Z,28.46
2023-03-16T02:59:42.865Z,28.45
2023-03-16T03:00:19.025Z,28.40
2023-03-16T03:00:54.902Z,28.46
2023-03-16T03:01:30.660Z,28.09
2023-03-16T03:02:06.737Z,28.47
2023-03-16T03:02:42.931Z,28.48
2023-03-16T03:03:19.611Z,28.56
2023-03-16T03:03:55.593Z,28.38
2023-03-16T03:04:31.909Z,28.48
2023-03-16T03:05:07.777Z,28.45
2023-03-16T03:05:43.742Z,28.33
2023-03-16T03:06:19.444Z,28.19
2023-03-16T03:06:55.159Z,28.39
2023-03-16T03:07:30.851Z,28.32
2023-03-16T03:08:06.735Z,28.20
2023-03-16T03:08:42.652Z,28.48
2023-03-16T03:09:18.728Z,28.28
2023-03-16T03:09:55.037Z,28.43
2023-03-16T03:10:31.087Z,28.31
2023-03-16T03:11:07.045Z,28.50
2023-03-16T03:11:42.448Z,28.33
2023-03-16T03:12:17.835Z,28.50
2023-03-16T03:12:54.157Z,28.45
2023-03-16T03:13:30.190Z,28.40
2023-03-16T03:14:05.756Z,28.47
2023-03-16T03:14:42.030Z,28.41
2023-03-16T03:15:17.946Z,28.40
2023-03-16T03:15:53.773Z,28.50
2023-03-16T03:16:30.170Z,28.37
2023-03-16T03:17:05.769Z,28.44
2023-03-16T03:17:41.311Z,28.40
2023-03-16T03:18:17.657Z,28.29
2023-03-16T03:18:54.652Z,28.49
2023-03-16T03:19:30.262Z,28.24
2023-03-16T03:20:06.420Z,28.17
2023-03-16T03:20:42.139Z,28.42
2023-03-16T03:21:18.563Z,28.34
2023-03-16T03:21:53.934Z,28.25
2023-03-16T03:22:29.592Z,28.24
2023-03-16T03:23:05.207Z,28.30
2023-03-16T03:23:41.109Z,28.37
2023-03-16T03:24:16.929Z,28.29
2023-03-16T03:24:52.852Z,28.31
2023-03-16T03:25:28.728Z,28.14
2023-03-16T03:26:04.306Z,28.36
2023-03-16T03:26:40.695Z,28.27
2023-03-16T03:27:16.525Z,28.39
2023-03-16T03:27:52.528Z,28.28
2023-03-16T03:28:28.203Z,28.40
2023-03-16T03:29:04.109Z,28.32
2023-03-16T03:29:39.765Z,28.34
2023-03-16T03:30:16.253Z,28.21
2023-03-16T03:30:51.978Z,28.46
2023-03-16T03:31:28.305Z,28.34
2023-03-16T03:32:03.854Z,28.43
2023-03-16T03:32:40.140Z,28.44
2023-03-16T03:33:15.708Z,28.33
2023-03-16T03:33:51.393Z,28.42
2023-03-16T03:34:27.481Z,28.43
2023-03-16T03:35:03.488Z,28.47
2023-03-16T03:35:39.475Z,28.36
2023-03-16T03:36:15.341Z,28.52
2023-03-16T03:36:51.813Z,28.49
2023-03-16T03:37:27.995Z,28.50
2023-03-16T03:38:04.065Z,28.39
2023-03-16T03:38:39.902Z,28.48
2023-03-16T03:39:15.567Z,28.35
2023-03-16T03:39:51.771Z,28.33
2023-03-16T03:40:27.814Z,28.11
2023-03-16T03:41:03.715Z,28.26
2023-03-16T03:41:39.342Z,28.41
2023-03-16T03:42:15.584Z,28.47
2023-03-16T03:42:51.663Z,28.55
2023-03-16T03:43:27.604Z,28.59
2023-03-16T03:44:03.784Z,28.41
2023-03-16T03:44:39.506Z,28.30
2023-03-16T03:45:15.506Z,28.49
2023-03-16T03:45:51.650Z,28.47
2023-03-16T03:46:27.690Z,28.37
2023-03-16T03:47:04.247Z,28.52
2023-03-16T03:47:39.917Z,28.42
2023-03-16T03:48:15.813Z,28.31
2023-03-16T03:48:52.222Z,28.46
2023-03-16T03:49:27.837Z,28.23
2023-03-16T03:50:03.477Z,28.46
2023-03-16T03:50:39.411Z,28.46
2023-03-16T03:51:15.420Z,28.46
2023-03-16T03:51:51.104Z,28.28
2023-03-16T03:52:27.228Z,28.32
2023-03-16T03:53:03.500Z,28.34
2023-03-16T03:53:39.643Z,28.28
2023-03-16T03:54:16.070Z,28.19
2023-03-16T03:54:51.747Z,28.03
2023-03-16T03:55:27.167Z,28.15
2023-03-16T03:56:02.972Z,28.18
2023-03-16T03:56:38.928Z,28.18
2023-03-16T03:57:15.076Z,28.20
2023-03-16T03:57:50.605Z,28.22
2023-03-16T03:58:27.147Z,28.07
2023-03-16T03:59:02.997Z,28.32
2023-03-16T03:59:39.297Z,28.34
2023-03-16T04:00:14.866Z,28.18
2023-03-16T04:00:49.872Z,28.11
2023-03-16T04:01:25.702Z,28.34
2023-03-16T04:02:01.880Z,28.42
2023-03-16T04:02:37.753Z,28.45
2023-03-16T04:03:13.429Z,28.28
2023-03-16T04:03:49.322Z,28.21
2023-03-16T04:04:25.591Z,28.26
2023-03-16T04:05:01.788Z,28.26
2023-03-16T04:05:37.512Z,28.36
2023-03-16T04:06:13.060Z,28.43
2023-03-16T04:06:48.872Z,28.37
2023-03-16T04:07:25.212Z,28.22
2023-03-16T04:08:01.462Z,28.39
2023-03-16T04:08:37.737Z,28.21
2023-03-16T04:09:13.855Z,28.22
2023-03-16T04:09:53.714Z,28.35
2023-03-16T04:10:29.873Z,28.21
2023-03-16T04:11:05.009Z,28.27
2023-03-16T04:11:40.423Z,28.20
2023-03-16T04:12:16.756Z,28.17
2023-03-16T04:12:52.615Z,28.40
2023-03-16T04:13:29.042Z,28.17
2023-03-16T04:14:05.135Z,28.34
2023-03-16T04:14:40.990Z,28.22
2023-03-16T04:15:16.248Z,28.24
2023-03-16T04:15:52.132Z,28.33
2023-03-16T04:16:28.036Z,28.22
2023-03-16T04:17:03.226Z,28.24
2023-03-16T04:17:39.420Z,28.10
2023-03-16T04:18:15.599Z,28.32
2023-03-16T04:18:51.727Z,28.32
2023-03-16T04:19:27.662Z,28.12
2023-03-16T04:20:03.565Z,28.28
2023-03-16T04:20:39.999Z,28.29
2023-03-16T04:21:15.587Z,28.31
2023-03-16T04:21:51.655Z,28.19
2023-03-16T04:22:27.048Z,28.24
2023-03-16T04:23:03.139Z,28.23
2023-03-16T04:23:38.792Z,28.36
2023-03-16T04:24:15.164Z,28.26
2023-03-16T04:24:51.248Z,28.29
2023-03-16T04:25:27.101Z,28.35
2023-03-16T04:26:03.373Z,28.47
2023-03-16T04:26:39.429Z,28.17
2023-03-16T04:27:15.569Z,28.28
2023-03-16T04:27:51.228Z,28.03
2023-03-16T04:28:27.343Z,28.36
2023-03-16T04:29:02.984Z,28.30
2023-03-16T04:29:39.151Z,28.15
2023-03-16T04:30:15.147Z,28.31
2023-03-16T04:30:51.398Z,28.29
2023-03-16T04:31:26.999Z,28.24
2023-03-16T04:32:03.337Z,28.36
2023-03-16T04:32:39.105Z,28.29
2023-03-16T04:33:14.732Z,28.26
2023-03-16T04:33:50.235Z,27.96
2023-03-16T04:34:26.408Z,28.12
2023-03-16T04:35:02.645Z,28.24
2023-03-16T04:35:39.324Z,28.29
2023-03-16T04:36:14.970Z,28.25
2023-03-16T04:36:51.292Z,28.08
2023-03-16T04:37:27.192Z,28.10
2023-03-16T04:38:02.854Z,28.11
2023-03-16T04:38:38.276Z,28.23
2023-03-16T04:39:14.217Z,28.23
2023-03-16T04:39:50.321Z,28.04
2023-03-16T04:40:26.262Z,28.29
2023-03-16T04:41:02.233Z,28.26
2023-03-16T04:41:38.555Z,28.13
2023-03-16T04:42:15.164Z,28.13
2023-03-16T04:42:50.674Z,28.20
2023-03-16T04:43:26.774Z,28.18
2023-03-16T04:44:01.968Z,28.03
2023-03-16T04:44:38.510Z,27.88
2023-03-16T04:45:14.508Z,28.13
2023-03-16T04:45:50.212Z,28.14
2023-03-16T04:46:26.771Z,27.89
2023-03-16T04:47:02.327Z,27.99
2023-03-16T04:47:38.882Z,27.80
2023-03-16T04:48:14.875Z,28.19
2023-03-16T04:48:50.587Z,27.92
2023-03-16T04:49:25.713Z,28.06
2023-03-16T04:50:01.603Z,27.84
2023-03-16T04:50:38.042Z,27.92
2023-03-16T04:51:14.192Z,28.03
2023-03-16T04:51:50.089Z,28.11
2023-03-16T04:52:26.762Z,27.86
2023-03-16T04:53:02.399Z,27.89
2023-03-16T04:53:38.523Z,28.09
2023-03-16T04:54:14.462Z,27.94
2023-03-16T04:54:49.646Z,27.97
2023-03-16T04:55:26.368Z,27.97
2023-03-16T04:56:01.939Z,27.78
2023-03-16T04:56:37.976Z,27.92
2023-03-16T04:57:14.431Z,27.93
2023-03-16T04:57:50.353Z,28.03
2023-03-16T04:58:26.045Z,28.04
2023-03-16T04:59:01.995Z,27.88
2023-03-16T04:59:37.939Z,28.06
2023-03-16T05:00:13.369Z,28.12
2023-03-16T05:00:49.408Z,28.03
2023-03-16T05:01:25.875Z,27.99
2023-03-16T05:02:01.524Z,27.85
2023-03-16T05:02:37.310Z,28.03
2023-03-16T05:03:13.962Z,28.04
2023-03-16T05:03:49.556Z,27.98
2023-03-16T05:04:25.903Z,27.93
2023-03-16T05:05:01.720Z,27.91
2023-03-16T05:05:37.066Z,27.94
2023-03-16T05:06:13.755Z,27.84
2023-03-16T05:06:49.359Z,27.86
2023-03-16T05:07:25.763Z,27.88
2023-03-16T05:08:01.730Z,28.01
2023-03-16T05:08:38.226Z,27.85
2023-03-16T05:09:14.352Z,27.90
2023-03-16T05:09:49.898Z,27.80
2023-03-16T05:10:25.781Z,27.90
2023-03-16T05:10:59.878Z,27.79
2023-03-16T05:11:35.671Z,27.63
2023-03-16T05:12:11.736Z,27.77
2023-03-16T05:12:47.802Z,27.71
2023-03-16T05:13:23.616Z,27.63
2023-03-16T05:13:59.629Z,27.78
2023-03-16T05:14:36.045Z,27.67
2023-03-16T05:15:12.546Z,27.81
2023-03-16T05:15:48.455Z,27.65
2023-03-16T05:16:23.791Z,27.56
2023-03-16T05:17:00.404Z,27.70
2023-03-16T05:17:36.213Z,27.77
2023-03-16T05:18:13.060Z,27.70
2023-03-16T05:18:48.953Z,27.65
2023-03-16T05:19:25.136Z,27.80
2023-03-16T05:20:01.109Z,27.55
2023-03-16T05:20:37.078Z,27.75
2023-03-16T05:21:13.228Z,27.96
2023-03-16T05:21:48.486Z,27.80
2023-03-16T05:22:25.011Z,27.75
2023-03-16T05:23:00.969Z,27.63
2023-03-16T05:23:37.029Z,27.54
2023-03-16T05:24:12.887Z,27.69
2023-03-16T05:24:48.363Z,27.64
2023-03-16T05:25:24.991Z,27.70
2023-03-16T05:26:00.834Z,27.65
2023-03-16T05:26:36.387Z,27.66
2023-03-16T05:27:11.724Z,27.73
2023-03-16T05:27:47.836Z,27.65
2023-03-16T05:28:23.454Z,27.82
2023-03-16T05:28:59.982Z,27.61
2023-03-16T05:29:35.915Z,27.70
2023-03-16T05:30:12.187Z,27.63
2023-03-16T05:30:48.245Z,27.69
2023-03-16T05:31:24.377Z,27.54
2023-03-16T05:32:00.189Z,27.69
2023-03-16T05:32:35.933Z,27.57
2023-03-16T05:33:11.531Z,27.44
2023-03-16T05:33:46.873Z,27.39
2023-03-16T05:34:22.969Z,27.41
2023-03-16T05:34:59.493Z,27.50
2023-03-16T05:35:35.694Z,27.61
2023-03-16T05:36:11.900Z,27.65
2023-03-16T05:36:47.921Z,27.57
2023-03-16T05:37:24.491Z,27.44
2023-03-16T05:38:00.655Z,27.61
2023-03-16T05:38:35.942Z,27.60
2023-03-16T05:39:12.108Z,27.56
2023-03-16T05:39:48.530Z,27.79
2023-03-16T05:40:24.505Z,27.63
2023-03-16T05:41:00.590Z,27.46
2023-03-16T05:41:36.340Z,27.61
2023-03-16T05:42:12.230Z,27.62
2023-03-16T05:42:48.069Z,27.42
2023-03-16T05:43:23.254Z,27.57
2023-03-16T05:43:59.812Z,27.52
2023-03-16T05:44:35.843Z,27.52
2023-03-16T05:45:11.412Z,27.31
2023-03-16T05:45:47.805Z,27.25
2023-03-16T05:46:23.486Z,27.38
2023-03-16T05:46:59.753Z,27.49
2023-03-16T05:47:35.597Z,27.38
2023-03-16T05:48:11.609Z,27.38
2023-03-16T05:48:47.202Z,27.33
2023-03-16T05:49:23.146Z,27.48
2023-03-16T05:49:59.176Z,27.58
2023-03-16T05:50:35.198Z,27.53
2023-03-16T05:51:10.934Z,27.68
2023-03-16T05:51:47.250Z,27.54
2023-03-16T05:52:23.406Z,27.47
2023-03-16T05:52:59.249Z,27.45
2023-03-16T05:53:34.989Z,27.54
2023-03-16T05:54:10.824Z,27.57
2023-03-16T05:54:46.431Z,27.48
2023-03-16T05:55:22.816Z,27.51
2023-03-16T05:55:58.753Z,27.41
2023-03-16T05:56:34.602Z,27.32
2023-03-16T05:57:10.558Z,27.47
2023-03-16T05:57:46.194Z,27.47
2023-03-16T05:58:22.523Z,27.31
2023-03-16T05:58:57.660Z,27.34
2023-03-16T05:59:33.839Z,27.54
2023-03-16T06:00:09.726Z,27.48
2023-03-16T06:00:45.652Z,27.46
2023-03-16T06:01:21.772Z,27.58
2023-03-16T06:01:57.721Z,27.52
2023-03-16T06:02:33.545Z,27.40
2023-03-16T06:03:09.061Z,27.57
2023-03-16T06:03:44.460Z,27.51
2023-03-16T06:04:20.311Z,27.45
2023-03-16T06:04:56.229Z,27.48
2023-03-16T06:05:32.020Z,27.49
2023-03-16T06:06:07.479Z,27.55
2023-03-16T06:06:43.413Z,27.48
2023-03-16T06:07:19.622Z,27.33
2023-03-16T06:07:56.000Z,27.34
2023-03-16T06:08:31.649Z,27.40
2023-03-16T06:09:07.236Z,27.46
2023-03-16T06:09:43.215Z,27.48
2023-03-16T06:10:19.085Z,27.50
2023-03-16T06:10:54.888Z,27.49
2023-03-16T06:11:30.544Z,27.54
2023-03-16T06:12:06.793Z,27.46
2023-03-16T06:12:42.645Z,27.55
2023-03-16T06:13:18.272Z,27.60
2023-03-16T06:13:53.739Z,27.39
2023-03-16T06:14:29.618Z,27.44
2023-03-16T06:15:05.352Z,27.38
2023-03-16T06:15:41.423Z,27.42
2023-03-16T06:16:17.323Z,27.46
2023-03-16T06:16:53.526Z,27.50
2023-03-16T06:17:29.169Z,27.44
2023-03-16T06:18:05.642Z,27.47
2023-03-16T06:18:41.780Z,27.63
2023-03-16T06:19:17.322Z,27.48
2023-03-16T06:19:53.078Z,27.34
2023-03-16T06:20:29.671Z,27.59
2023-03-16T06:21:06.241Z,27.52
2023-03-16T06:21:42.333Z,27.41
2023-03-16T06:22:18.096Z,27.77
2023-03-16T06:22:54.348Z,27.69
2023-03-16T06:23:30.779Z,27.55
2023-03-16T06:24:06.531Z,27.67
2023-03-16T06:24:41.807Z,27.46
2023-03-16T06:25:18.018Z,27.59
2023-03-16T06:25:54.131Z,27.46
2023-03-16T06:26:30.216Z,27.55
2023-03-16T06:27:05.853Z,27.53
2023-03-16T06:27:42.383Z,27.68
2023-03-16T06:28:18.314Z,27.47
2023-03-16T06:28:54.221Z,27.31
2023-03-16T06:29:30.325Z,27.33
2023-03-16T06:30:06.188Z,27.51
2023-03-16T06:30:41.805Z,27.23
2023-03-16T06:31:18.131Z,27.32
2023-03-16T06:31:53.886Z,27.49
2023-03-16T06:32:30.287Z,27.28
2023-03-16T06:33:06.247Z,27.46
2023-03-16T06:33:41.749Z,27.25
2023-03-16T06:34:17.938Z,27.45
2023-03-16T06:34:53.868Z,27.31
2023-03-16T06:35:29.448Z,27.39
2023-03-16T06:36:05.246Z,27.40
2023-03-16T06:36:41.171Z,27.37
2023-03-16T06:37:17.172Z,27.38
2023-03-16T06:37:53.659Z,27.25
2023-03-16T06:38:29.385Z,27.28
2023-03-16T06:39:04.802Z,27.14
2023-03-16T06:39:41.370Z,27.28
2023-03-16T06:40:17.558Z,27.30
2023-03-16T06:40:52.889Z,27.28
2023-03-16T06:41:28.929Z,27.39
2023-03-16T06:42:05.115Z,27.28
2023-03-16T06:42:41.204Z,27.32
2023-03-16T06:43:17.311Z,27.43
2023-03-16T06:43:53.383Z,27.24
2023-03-16T06:44:29.507Z,27.24
2023-03-16T06:45:05.390Z,27.42
2023-03-16T06:45:41.347Z,27.11
2023-03-16T06:46:16.694Z,27.19
2023-03-16T06:46:53.257Z,27.30
2023-03-16T06:47:29.491Z,27.38
2023-03-16T06:48:05.342Z,27.20
2023-03-16T06:48:41.353Z,27.36
2023-03-16T06:49:17.042Z,27.49
2023-03-16T06:49:52.920Z,27.37
2023-03-16T06:50:29.468Z,27.17
2023-03-16T06:51:04.603Z,27.24
2023-03-16T06:51:39.658Z,27.24
2023-03-16T06:52:15.619Z,27.20
2023-03-16T06:52:51.842Z,27.14
2023-03-16T06:53:28.361Z,27.28
2023-03-16T06:54:04.853Z,27.27
2023-03-16T06:54:40.772Z,27.25
2023-03-16T06:55:16.920Z,27.23
2023-03-16T06:55:52.873Z,27.07
2023-03-16T06:56:28.443Z,27.22
2023-03-16T06:57:04.100Z,27.35
2023-03-16T06:57:39.803Z,27.23
2023-03-16T06:58:16.298Z,27.45
2023-03-16T06:58:52.262Z,27.33
2023-03-16T06:59:28.185Z,27.28
2023-03-16T07:00:03.957Z,27.27
2023-03-16T07:00:39.788Z,27.32
2023-03-16T07:01:16.181Z,27.31
2023-03-16T07:01:51.989Z,27.34
2023-03-16T07:02:27.400Z,27.37
2023-03-16T07:03:03.148Z,27.23
2023-03-16T07:03:39.076Z,27.14
2023-03-16T07:04:14.763Z,27.27
2023-03-16T07:04:50.442Z,27.18
2023-03-16T07:05:26.339Z,27.25
2023-03-16T07:06:02.369Z,27.25
2023-03-16T07:06:37.639Z,27.25
2023-03-16T07:07:13.618Z,27.30
2023-03-16T07:07:50.431Z,27.14
2023-03-16T07:08:26.482Z,27.15
2023-03-16T07:09:03.124Z,27.30
2023-03-16T07:09:40.332Z,27.34
2023-03-16T07:10:16.339Z,27.47
2023-03-16T07:10:52.474Z,27.24
2023-03-16T07:11:28.503Z,27.23
2023-03-16T07:12:04.731Z,27.28
2023-03-16T07:12:40.701Z,27.15
2023-03-16T07:13:17.028Z,27.15
2023-03-16T07:13:52.872Z,27.23
2023-03-16T07:14:28.752Z,27.12
2023-03-16T07:15:04.085Z,27.24
2023-03-16T07:15:40.276Z,27.29
2023-03-16T07:16:16.235Z,27.37
2023-03-16T07:16:52.338Z,27.17
2023-03-16T07:17:28.553Z,27.29
2023-03-16T07:18:04.582Z,27.27
2023-03-16T07:18:41.053Z,27.10
2023-03-16T07:19:16.910Z,27.36
2023-03-16T07:19:52.067Z,27.19
2023-03-16T07:20:28.598Z,27.21
2023-03-16T07:21:05.264Z,27.06
2023-03-16T07:21:41.089Z,27.18
2023-03-16T07:22:16.836Z,27.17
2023-03-16T07:22:52.988Z,27.14
2023-03-16T07:23:28.899Z,27.01
2023-03-16T07:24:04.879Z,27.16
2023-03-16T07:24:40.772Z,27.29
2023-03-16T07:25:16.293Z,27.13
2023-03-16T07:25:52.105Z,27.05
2023-03-16T07:26:28.137Z,27.15
2023-03-16T07:27:04.082Z,27.02
2023-03-16T07:27:40.643Z,27.05
2023-03-16T07:28:16.517Z,27.05
2023-03-16T07:28:52.029Z,26.96
2023-03-16T07:29:28.176Z,27.10
2023-03-16T07:30:04.415Z,26.95
2023-03-16T07:30:41.280Z,26.95
2023-03-16T07:31:17.463Z,26.98
2023-03-16T07:31:53.519Z,27.01
2023-03-16T07:32:29.396Z,27.05
2023-03-16T07:33:05.988Z,26.90
2023-03-16T07:33:41.777Z,26.80
2023-03-16T07:34:18.216Z,26.87
2023-03-16T07:34:54.203Z,27.06
2023-03-16T07:35:28.114Z,27.00
2023-03-16T07:36:03.313Z,27.03
2023-03-16T07:36:40.193Z,26.98
2023-03-16T07:37:18.340Z,26.81
2023-03-16T07:37:56.761Z,27.07
2023-03-16T07:38:33.149Z,26.84
2023-03-16T07:39:08.640Z,27.19
2023-03-16T07:39:44.347Z,26.93
2023-03-16T07:40:20.864Z,26.86
2023-03-16T07:40:56.597Z,27.00
2023-03-16T07:41:32.794Z,26.77
2023-03-16T07:42:08.210Z,27.06
2023-03-16T07:42:44.317Z,26.91
2023-03-16T07:43:20.339Z,26.72